createdAt,value
2017-01-16T00:01:05.498Z,1018.12
2017-01-16T00:02:14.480Z,1018.1
2017-01-16T00:03:23.450Z,1018.13
2017-01-16T00:04:32.432Z,1018.13
2017-01-16T00:05:41.429Z,1018.12
2017-01-16T00:06:50.393Z,1018.12
2017-01-16T00:07:59.382Z,1018.15
2017-01-16T00:09:08.351Z,1018.15
2017-01-16T00:10:17.338Z,1018.16
2017-01-16T00:11:26.339Z,1018.11
2017-01-16T00:12:35.337Z,1018.13
2017-01-16T00:13:44.304Z,1018.17
2017-01-16T00:14:53.283Z,1018.15
2017-01-16T00:16:02.254Z,1018.15
2017-01-16T00:17:11.259Z,1018.17
2017-01-16T00:18:20.247Z,1018.2
2017-01-16T00:19:29.213Z,1018.18
2017-01-16T00:20:38.192Z,1018.19
2017-01-16T00:21:47.168Z,1018.22
2017-01-16T00:22:56.172Z,1018.23
2017-01-16T00:24:05.147Z,1018.24
2017-01-16T00:25:14.123Z,1018.27
2017-01-16T00:26:23.099Z,1018.23
2017-01-16T00:27:32.080Z,1018.28
2017-01-16T00:28:41.055Z,1018.26
2017-01-16T00:29:50.027Z,1018.24
2017-01-16T00:30:59.012Z,1018.27
2017-01-16T00:32:07.984Z,1018.23
2017-01-16T00:33:16.957Z,1018.26
2017-01-16T00:34:25.934Z,1018.25
2017-01-16T00:35:34.905Z,1018.29
2017-01-16T00:36:43.888Z,1018.27
2017-01-16T00:37:52.848Z,1018.32
2017-01-16T00:39:01.832Z,1018.31
2017-01-16T00:40:10.804Z,1018.27
2017-01-16T00:41:19.772Z,1018.29
2017-01-16T00:42:28.746Z,1018.28
2017-01-16T00:43:37.722Z,1018.29
2017-01-16T00:44:46.691Z,1018.31
2017-01-16T00:45:55.680Z,1018.3
2017-01-16T00:47:04.663Z,1018.24
2017-01-16T00:48:13.635Z,1018.27
2017-01-16T00:49:22.617Z,1018.29
2017-01-16T00:50:31.577Z,1018.24
2017-01-16T00:51:40.552Z,1018.29
2017-01-16T00:52:49.528Z,1018.27
2017-01-16T00:53:58.518Z,1018.29
2017-01-16T00:55:07.498Z,1018.33
2017-01-16T00:56:16.480Z,1018.29
2017-01-16T00:57:25.451Z,1018.32
2017-01-16T00:58:34.419Z,1018.36
2017-01-16T00:59:43.393Z,1018.35
2017-01-16T01:00:52.372Z,1018.36
2017-01-16T01:02:01.366Z,1018.35
2017-01-16T01:03:10.328Z,1018.37
2017-01-16T01:04:19.702Z,1018.36
2017-01-16T01:05:28.696Z,1018.37
2017-01-16T01:06:37.668Z,1018.37
2017-01-16T01:07:46.645Z,1018.39
2017-01-16T01:08:55.628Z,1018.36
2017-01-16T01:10:04.626Z,1018.38
2017-01-16T01:11:13.618Z,1018.44
2017-01-16T01:12:22.600Z,1018.44
2017-01-16T01:13:31.588Z,1018.45
2017-01-16T01:14:40.566Z,1018.42
2017-01-16T01:15:49.539Z,1018.44
2017-01-16T01:16:58.512Z,1018.47
2017-01-16T01:18:07.499Z,1018.43
2017-01-16T01:19:16.477Z,1018.43
2017-01-16T01:20:25.452Z,1018.45
2017-01-16T01:21:34.431Z,1018.45
2017-01-16T01:22:43.405Z,1018.46
2017-01-16T01:23:52.377Z,1018.47
2017-01-16T01:25:01.355Z,1018.46
2017-01-16T01:26:10.334Z,1018.45
2017-01-16T01:27:19.305Z,1018.49
2017-01-16T01:28:28.302Z,1018.49
2017-01-16T01:29:37.299Z,1018.49
2017-01-16T01:30:46.286Z,1018.51
2017-01-16T01:31:55.253Z,1018.52
2017-01-16T01:33:04.223Z,1018.5
2017-01-16T01:34:13.207Z,1018.52
2017-01-16T01:35:22.176Z,1018.5
2017-01-16T01:36:31.185Z,1018.54
2017-01-16T01:37:40.161Z,1018.58
2017-01-16T01:38:49.136Z,1018.55
2017-01-16T01:39:58.115Z,1018.58
2017-01-16T01:41:07.099Z,1018.6
2017-01-16T01:42:16.088Z,1018.59
2017-01-16T01:43:25.064Z,1018.58
2017-01-16T01:44:34.038Z,1018.6
2017-01-16T01:45:43.000Z,1018.61
2017-01-16T01:46:51.987Z,1018.63
2017-01-16T01:48:00.966Z,1018.66
2017-01-16T01:49:09.941Z,1018.66
2017-01-16T01:50:18.901Z,1018.69
2017-01-16T01:51:27.884Z,1018.67
2017-01-16T01:52:36.850Z,1018.65
2017-01-16T01:53:45.820Z,1018.7
2017-01-16T01:54:54.801Z,1018.65
2017-01-16T01:56:03.768Z,1018.67
2017-01-16T01:57:12.754Z,1018.69
2017-01-16T01:58:21.720Z,1018.69
2017-01-16T01:59:30.701Z,1018.69
2017-01-16T02:00:39.679Z,1018.71
2017-01-16T02:01:48.661Z,1018.74
2017-01-16T02:02:57.639Z,1018.72
2017-01-16T02:04:06.627Z,1018.71
2017-01-16T02:05:15.609Z,1018.7
2017-01-16T02:06:24.605Z,1018.7
2017-01-16T02:07:33.586Z,1018.75
2017-01-16T02:08:42.568Z,1018.79
2017-01-16T02:09:51.537Z,1018.76
2017-01-16T02:11:00.501Z,1018.81
2017-01-16T02:12:09.476Z,1018.77
2017-01-16T02:13:18.479Z,1018.78
2017-01-16T02:14:27.455Z,1018.8
2017-01-16T02:15:36.443Z,1018.81
2017-01-16T02:16:45.404Z,1018.79
2017-01-16T02:17:54.373Z,1018.79
2017-01-16T02:19:03.355Z,1018.82
2017-01-16T02:20:12.322Z,1018.83
2017-01-16T02:21:21.296Z,1018.85
2017-01-16T02:22:30.295Z,1018.83
2017-01-16T02:23:39.274Z,1018.81
2017-01-16T02:24:48.234Z,1018.82
2017-01-16T02:25:57.220Z,1018.85
2017-01-16T02:27:06.189Z,1018.85
2017-01-16T02:28:15.167Z,1018.91
2017-01-16T02:29:24.133Z,1018.89
2017-01-16T02:30:33.100Z,1018.86
2017-01-16T02:31:42.071Z,1018.91
2017-01-16T02:32:51.049Z,1018.88
2017-01-16T02:34:00.030Z,1018.91
2017-01-16T02:35:09.034Z,1018.92
2017-01-16T02:36:18.013Z,1018.9
2017-01-16T02:37:26.984Z,1018.9
2017-01-16T02:38:35.955Z,1018.92
2017-01-16T02:39:44.935Z,1018.89
2017-01-16T02:40:53.902Z,1018.91
2017-01-16T02:42:02.877Z,1018.92
2017-01-16T02:43:11.849Z,1018.92
2017-01-16T02:44:20.825Z,1018.92
2017-01-16T02:45:29.791Z,1018.93
2017-01-16T02:46:38.761Z,1018.87
2017-01-16T02:47:47.737Z,1018.9
2017-01-16T02:48:56.724Z,1018.89
2017-01-16T02:50:05.685Z,1018.93
2017-01-16T02:51:14.667Z,1018.88
2017-01-16T02:52:23.632Z,1018.95
2017-01-16T02:53:32.627Z,1018.92
2017-01-16T02:54:41.600Z,1018.93
2017-01-16T02:55:50.568Z,1018.96
2017-01-16T02:56:59.536Z,1018.93
2017-01-16T02:58:08.516Z,1018.97
2017-01-16T02:59:17.481Z,1018.97
2017-01-16T03:00:26.446Z,1018.97
2017-01-16T03:01:35.417Z,1019.01
2017-01-16T03:02:44.420Z,1019.03
2017-01-16T03:03:53.390Z,1019.07
2017-01-16T03:05:02.357Z,1019.06
2017-01-16T03:06:11.367Z,1019.03
2017-01-16T03:07:20.340Z,1019.05
2017-01-16T03:08:29.311Z,1019.08
2017-01-16T03:09:38.282Z,1019.05
2017-01-16T03:10:47.275Z,1019.11
2017-01-16T03:11:56.293Z,1019.09
2017-01-16T03:13:05.279Z,1019.12
2017-01-16T03:14:14.252Z,1019.12
2017-01-16T03:15:23.212Z,1019.11
2017-01-16T03:16:32.187Z,1019.12
2017-01-16T03:17:41.166Z,1019.15
2017-01-16T03:18:50.130Z,1019.12
2017-01-16T03:19:59.134Z,1019.14
2017-01-16T03:21:08.095Z,1019.1
2017-01-16T03:22:17.067Z,1019.12
2017-01-16T03:23:26.122Z,1019.13
2017-01-16T03:24:35.103Z,1019.15
2017-01-16T03:25:44.070Z,1019.09
2017-01-16T03:26:53.043Z,1019.18
2017-01-16T03:28:02.009Z,1019.17
2017-01-16T03:29:10.975Z,1019.13
2017-01-16T03:30:19.957Z,1019.14
2017-01-16T03:31:28.926Z,1019.13
2017-01-16T03:32:37.890Z,1019.1
2017-01-16T03:33:46.868Z,1019.15
2017-01-16T03:34:55.840Z,1019.15
2017-01-16T03:36:04.812Z,1019.15
2017-01-16T03:37:13.774Z,1019.16
2017-01-16T03:38:22.786Z,1019.19
2017-01-16T03:39:31.774Z,1019.15
2017-01-16T03:40:40.740Z,1019.16
2017-01-16T03:41:49.721Z,1019.18
2017-01-16T03:42:58.690Z,1019.19
2017-01-16T03:44:07.664Z,1019.19
2017-01-16T03:45:16.639Z,1019.23
2017-01-16T03:46:25.604Z,1019.24
2017-01-16T03:47:34.569Z,1019.23
2017-01-16T03:48:43.553Z,1019.26
2017-01-16T03:49:52.515Z,1019.22
2017-01-16T03:51:01.503Z,1019.28
2017-01-16T03:52:10.474Z,1019.23
2017-01-16T03:53:19.873Z,1019.25
2017-01-16T03:54:28.833Z,1019.24
2017-01-16T03:55:37.810Z,1019.24
2017-01-16T03:56:46.781Z,1019.22
2017-01-16T03:57:55.754Z,1019.22
2017-01-16T03:59:04.726Z,1019.28
2017-01-16T04:00:13.697Z,1019.29
2017-01-16T04:01:22.673Z,1019.28
2017-01-16T04:02:31.648Z,1019.29
2017-01-16T04:03:40.611Z,1019.28
2017-01-16T04:04:49.591Z,1019.27
2017-01-16T06:07:46.191Z,1020.45
2017-01-16T06:08:55.171Z,1020.47
2017-01-16T06:10:04.155Z,1020.45
2017-01-16T06:11:13.113Z,1020.43
2017-01-16T06:12:22.083Z,1020.48
2017-01-16T06:13:31.053Z,1020.49
2017-01-16T06:14:40.026Z,1020.47
2017-01-16T06:15:48.991Z,1020.49
2017-01-16T06:16:57.979Z,1020.47
2017-01-16T06:18:06.946Z,1020.53
2017-01-16T06:19:15.927Z,1020.55
2017-01-16T06:20:24.898Z,1020.53
2017-01-16T06:21:33.870Z,1020.58
2017-01-16T06:22:42.846Z,1020.6
2017-01-16T06:23:51.825Z,1020.61
2017-01-16T06:25:00.801Z,1020.58
2017-01-16T06:26:09.778Z,1020.57
2017-01-16T06:27:18.755Z,1020.57
2017-01-16T06:28:27.722Z,1020.57
2017-01-16T06:29:36.698Z,1020.57
2017-01-16T06:30:46.111Z,1020.57
2017-01-16T06:31:55.084Z,1020.59
2017-01-16T06:33:04.058Z,1020.59
2017-01-16T06:34:13.032Z,1020.6
2017-01-16T06:35:22.010Z,1020.6
2017-01-16T06:36:30.982Z,1020.63
2017-01-16T06:37:39.984Z,1020.64
2017-01-16T06:38:48.957Z,1020.66
2017-01-16T06:39:57.922Z,1020.7
2017-01-16T06:41:06.899Z,1020.69
2017-01-16T06:42:15.864Z,1020.74
2017-01-16T06:43:24.826Z,1020.73
2017-01-16T06:44:33.791Z,1020.76
2017-01-16T06:45:42.764Z,1020.78
2017-01-16T06:46:51.744Z,1020.79
2017-01-16T06:48:00.720Z,1020.8
2017-01-16T06:49:09.694Z,1020.86
2017-01-16T06:50:18.659Z,1020.89
2017-01-16T06:51:27.646Z,1020.9
2017-01-16T06:52:36.628Z,1020.92
2017-01-16T06:53:45.590Z,1020.92
2017-01-16T06:54:54.561Z,1020.93
2017-01-16T06:56:03.539Z,1020.96
2017-01-16T06:57:12.499Z,1020.93
2017-01-16T06:58:21.486Z,1020.87
2017-01-16T06:59:30.466Z,1020.92
2017-01-16T07:00:39.436Z,1020.94
2017-01-16T07:01:48.402Z,1020.94
2017-01-16T07:02:57.388Z,1020.97
2017-01-16T07:04:06.353Z,1020.95
2017-01-16T07:05:15.365Z,1021.01
2017-01-16T07:06:24.336Z,1021
2017-01-16T07:07:33.307Z,1021.03
2017-01-16T07:08:42.269Z,1021.04
2017-01-16T07:09:51.244Z,1021.09
2017-01-16T07:11:00.217Z,1021.1
2017-01-16T07:12:09.205Z,1021.14
2017-01-16T07:13:18.183Z,1021.15
2017-01-16T07:14:27.180Z,1021.16
2017-01-16T07:15:36.143Z,1021.18
2017-01-16T07:16:45.119Z,1021.2
2017-01-16T07:17:54.094Z,1021.21
2017-01-16T07:19:03.080Z,1021.2
2017-01-16T07:20:12.067Z,1021.2
2017-01-16T07:21:21.033Z,1021.22
2017-01-16T07:22:30.010Z,1021.28
2017-01-16T07:23:38.999Z,1021.32
2017-01-16T07:24:48.055Z,1021.3
2017-01-16T07:25:57.031Z,1021.36
2017-01-16T07:27:06.002Z,1021.36
2017-01-16T07:28:15.310Z,1021.37
2017-01-16T07:29:25.016Z,1021.39
2017-01-16T07:30:34.103Z,1021.43
2017-01-16T07:31:43.155Z,1021.44
2017-01-16T07:32:52.136Z,1021.41
2017-01-16T07:34:01.141Z,1021.49
2017-01-16T07:35:10.115Z,1021.51
2017-01-16T07:36:19.088Z,1021.48
2017-01-16T07:37:28.191Z,1021.48
2017-01-16T07:38:37.182Z,1021.5
2017-01-16T07:39:46.177Z,1021.54
2017-01-16T07:40:55.161Z,1021.52
2017-01-16T07:42:04.168Z,1021.56
2017-01-16T07:43:13.147Z,1021.57
2017-01-16T07:44:22.213Z,1021.57
2017-01-16T07:45:31.595Z,1021.57
2017-01-16T07:46:40.566Z,1021.58
2017-01-16T07:47:49.539Z,1021.6
2017-01-16T07:48:58.596Z,1021.65
2017-01-16T07:50:07.671Z,1021.64
2017-01-16T07:51:16.653Z,1021.68
2017-01-16T07:52:25.767Z,1021.71
2017-01-16T07:53:34.754Z,1021.73
2017-01-16T07:54:43.731Z,1021.75
2017-01-16T07:55:52.702Z,1021.77
2017-01-16T07:57:01.670Z,1021.78
2017-01-16T07:58:11.109Z,1021.76
2017-01-16T07:59:22.036Z,1021.8
2017-01-16T08:00:31.021Z,1021.79
2017-01-16T08:01:40.000Z,1021.8
2017-01-16T08:02:49.402Z,1021.82
2017-01-16T08:03:58.363Z,1021.84
2017-01-16T08:05:07.340Z,1021.84
2017-01-16T08:06:16.305Z,1021.87
2017-01-16T08:07:25.290Z,1021.86
2017-01-16T08:08:34.262Z,1021.84
2017-01-16T08:09:43.244Z,1021.91
2017-01-16T08:10:52.210Z,1021.91
2017-01-16T08:12:01.179Z,1021.9
2017-01-16T08:13:10.152Z,1021.92
2017-01-16T08:14:19.170Z,1021.93
2017-01-16T08:15:28.148Z,1021.9
2017-01-16T08:16:37.112Z,1021.91
2017-01-16T08:17:46.091Z,1021.95
2017-01-16T08:18:55.063Z,1021.95
2017-01-16T08:20:04.039Z,1021.95
2017-01-16T08:21:13.020Z,1021.92
2017-01-16T08:22:21.991Z,1021.91
2017-01-16T08:23:30.963Z,1021.97
2017-01-16T08:24:39.940Z,1021.99
2017-01-16T08:25:48.917Z,1022.03
2017-01-16T08:26:57.882Z,1022.04
2017-01-16T08:28:06.856Z,1022.04
2017-01-16T08:29:15.861Z,1022.05
2017-01-16T08:30:24.835Z,1022.08
2017-01-16T08:31:33.810Z,1022.11
2017-01-16T08:32:42.771Z,1022.14
2017-01-16T08:33:51.744Z,1022.17
2017-01-16T08:35:00.725Z,1022.14
2017-01-16T08:36:09.700Z,1022.15
2017-01-16T08:37:18.679Z,1022.1
2017-01-16T08:38:27.652Z,1022.15
2017-01-16T08:39:36.624Z,1022.12
2017-01-16T08:40:45.592Z,1022.19
2017-01-16T08:41:54.570Z,1022.19
2017-01-16T08:43:03.545Z,1022.18
2017-01-16T08:44:12.521Z,1022.2
2017-01-16T08:45:21.491Z,1022.22
2017-01-16T08:46:30.457Z,1022.28
2017-01-16T08:47:39.428Z,1022.26
2017-01-16T08:48:48.413Z,1022.25
2017-01-16T08:49:57.390Z,1022.26
2017-01-16T08:51:06.366Z,1022.28
2017-01-16T08:52:15.707Z,1022.27
2017-01-16T08:53:24.823Z,1022.26
2017-01-16T08:54:33.788Z,1022.28
2017-01-16T08:55:42.785Z,1022.31
2017-01-16T08:56:51.774Z,1022.34
2017-01-16T08:58:00.749Z,1022.35
2017-01-16T08:59:09.729Z,1022.3
2017-01-16T09:00:18.707Z,1022.33
2017-01-16T09:01:27.682Z,1022.35
2017-01-16T09:02:36.664Z,1022.33
2017-01-16T09:03:45.639Z,1022.31
2017-01-16T09:04:54.610Z,1022.34
2017-01-16T09:06:03.569Z,1022.3
2017-01-16T09:07:12.551Z,1022.33
2017-01-16T09:08:21.518Z,1022.38
2017-01-16T09:09:30.506Z,1022.41
2017-01-16T09:10:39.487Z,1022.34
2017-01-16T09:11:48.457Z,1022.36
2017-01-16T09:12:57.436Z,1022.36
2017-01-16T09:14:06.416Z,1022.35
2017-01-16T09:15:15.401Z,1022.38
2017-01-16T09:16:24.380Z,1022.38
2017-01-16T09:17:33.367Z,1022.37
2017-01-16T09:18:42.330Z,1022.41
2017-01-16T09:19:51.295Z,1022.42
2017-01-16T09:21:00.280Z,1022.39
2017-01-16T09:22:09.254Z,1022.41
2017-01-16T09:23:18.234Z,1022.43
2017-01-16T09:24:27.205Z,1022.44
2017-01-16T09:25:36.179Z,1022.47
2017-01-16T09:26:45.151Z,1022.48
2017-01-16T09:27:54.119Z,1022.49
2017-01-16T09:29:03.104Z,1022.48
2017-01-16T09:30:12.084Z,1022.49
2017-01-16T09:31:21.066Z,1022.49
2017-01-16T09:32:30.034Z,1022.5
2017-01-16T09:33:39.014Z,1022.55
2017-01-16T09:34:47.999Z,1022.52
2017-01-16T09:35:56.998Z,1022.57
2017-01-16T09:37:06.384Z,1022.56
2017-01-16T09:38:15.356Z,1022.54
2017-01-16T09:39:24.327Z,1022.55
2017-01-16T09:40:33.307Z,1022.55
2017-01-16T09:41:42.302Z,1022.54
2017-01-16T09:42:51.278Z,1022.53
2017-01-16T09:44:00.263Z,1022.54
2017-01-16T09:45:09.241Z,1022.57
2017-01-16T09:46:18.215Z,1022.57
2017-01-16T09:47:27.200Z,1022.6
2017-01-16T09:48:36.183Z,1022.65
2017-01-16T09:49:45.150Z,1022.62
2017-01-16T09:50:54.137Z,1022.59
2017-01-16T09:52:03.108Z,1022.62
2017-01-16T09:53:12.086Z,1022.6
2017-01-16T09:54:21.054Z,1022.55
2017-01-16T09:55:30.031Z,1022.6
2017-01-16T09:56:39.009Z,1022.61
2017-01-16T09:57:47.978Z,1022.6
2017-01-16T09:58:56.949Z,1022.62
2017-01-16T10:00:05.927Z,1022.63
2017-01-16T10:01:14.908Z,1022.63
2017-01-16T10:02:23.877Z,1022.62
2017-01-16T10:03:32.858Z,1022.63
2017-01-16T10:04:41.825Z,1022.62
2017-01-16T10:05:50.807Z,1022.63
2017-01-16T10:06:59.773Z,1022.64
2017-01-16T10:08:08.764Z,1022.62
2017-01-16T10:09:17.727Z,1022.67
2017-01-16T10:10:26.714Z,1022.67
2017-01-16T10:11:35.673Z,1022.68
2017-01-16T10:12:44.645Z,1022.69
2017-01-16T10:13:53.630Z,1022.73
2017-01-16T10:15:02.595Z,1022.73
2017-01-16T10:16:11.571Z,1022.75
2017-01-16T10:17:20.545Z,1022.74
2017-01-16T10:18:29.526Z,1022.72
2017-01-16T10:19:38.490Z,1022.74
2017-01-16T10:20:47.467Z,1022.72
2017-01-16T10:21:56.443Z,1022.77
2017-01-16T10:23:05.420Z,1022.79
2017-01-16T10:24:14.401Z,1022.74
2017-01-16T10:25:23.366Z,1022.7
2017-01-16T10:26:32.340Z,1022.7
2017-01-16T10:27:41.335Z,1022.71
2017-01-16T10:28:50.297Z,1022.71
2017-01-16T10:29:59.276Z,1022.77
2017-01-16T10:31:08.268Z,1022.74
2017-01-16T10:32:17.244Z,1022.77
2017-01-16T10:33:26.213Z,1022.78
2017-01-16T10:34:35.200Z,1022.78
2017-01-16T10:35:44.175Z,1022.79
2017-01-16T10:36:53.234Z,1022.81
2017-01-16T10:38:02.239Z,1022.78
2017-01-16T10:39:11.210Z,1022.79
2017-01-16T10:40:20.180Z,1022.81
2017-01-16T10:41:29.166Z,1022.8
2017-01-16T10:42:38.157Z,1022.76
2017-01-16T10:43:47.137Z,1022.81
2017-01-16T10:44:56.114Z,1022.79
2017-01-16T10:46:05.084Z,1022.79
2017-01-16T10:47:14.056Z,1022.78
2017-01-16T10:48:23.038Z,1022.81
2017-01-16T10:49:32.004Z,1022.81
2017-01-16T10:50:40.980Z,1022.8
2017-01-16T10:51:49.949Z,1022.8
2017-01-16T10:52:58.945Z,1022.8
2017-01-16T10:54:07.916Z,1022.84
2017-01-16T10:55:16.908Z,1022.83
2017-01-16T10:56:25.874Z,1022.85
2017-01-16T10:57:34.838Z,1022.86
2017-01-16T10:58:43.825Z,1022.85
2017-01-16T10:59:52.795Z,1022.91
2017-01-16T11:01:01.764Z,1022.92
2017-01-16T11:02:10.736Z,1022.92
2017-01-16T11:03:19.731Z,1022.91
2017-01-16T11:04:28.688Z,1022.93
2017-01-16T11:05:37.668Z,1022.93
2017-01-16T11:06:46.627Z,1022.97
2017-01-16T11:07:55.617Z,1023.04
2017-01-16T11:09:04.597Z,1023
2017-01-16T11:10:13.576Z,1022.98
2017-01-16T11:11:22.553Z,1022.99
2017-01-16T11:12:31.510Z,1022.98
2017-01-16T11:13:40.491Z,1022.96
2017-01-16T11:14:49.464Z,1022.92
2017-01-16T11:15:58.446Z,1022.92
2017-01-16T11:17:07.408Z,1022.96
2017-01-16T11:18:16.376Z,1022.93
2017-01-16T11:19:25.368Z,1022.99
2017-01-16T11:20:34.339Z,1022.95
2017-01-16T11:21:43.314Z,1022.97
2017-01-16T11:22:52.278Z,1022.96
2017-01-16T11:24:01.270Z,1022.94
2017-01-16T11:25:10.245Z,1022.95
2017-01-16T11:26:19.213Z,1022.94
2017-01-16T11:27:28.189Z,1022.94
2017-01-16T11:28:37.161Z,1022.95
2017-01-16T11:29:46.143Z,1022.99
2017-01-16T11:30:55.118Z,1022.98
2017-01-16T11:32:04.098Z,1022.98
2017-01-16T11:33:13.090Z,1022.99
2017-01-16T11:34:22.061Z,1022.99
2017-01-16T11:35:31.028Z,1022.96
2017-01-16T11:36:40.014Z,1023
2017-01-16T11:37:48.995Z,1022.97
2017-01-16T11:38:57.958Z,1022.97
2017-01-16T11:40:06.933Z,1022.92
2017-01-16T11:41:15.918Z,1022.96
2017-01-16T11:42:24.883Z,1022.91
2017-01-16T11:43:33.864Z,1022.97
2017-01-16T11:44:42.845Z,1022.93
2017-01-16T11:45:51.811Z,1022.92
2017-01-16T11:47:00.776Z,1022.96
2017-01-16T11:48:09.768Z,1022.98
2017-01-16T11:49:18.742Z,1023.01
2017-01-16T11:50:27.732Z,1023.01
2017-01-16T11:51:36.696Z,1023.01
2017-01-16T11:52:45.663Z,1022.99
2017-01-16T11:53:54.626Z,1023.07
2017-01-16T11:55:03.609Z,1023.06
2017-01-16T11:56:12.581Z,1023.08
2017-01-16T11:57:21.544Z,1023.12
2017-01-16T11:58:30.521Z,1023.09
2017-01-16T11:59:39.492Z,1023.07
2017-01-16T12:00:48.475Z,1023.1
2017-01-16T12:01:57.441Z,1023.09
2017-01-16T12:03:06.424Z,1023.11
2017-01-16T12:04:15.393Z,1023.11
2017-01-16T12:05:24.365Z,1023.15
2017-01-16T12:06:33.346Z,1023.11
2017-01-16T12:07:42.327Z,1023.07
2017-01-16T12:08:51.348Z,1023.16
2017-01-16T12:10:00.355Z,1023.14
2017-01-16T12:11:11.473Z,1023.15
2017-01-16T12:12:20.459Z,1023.18
2017-01-16T12:13:30.409Z,1023.19
2017-01-16T12:14:39.399Z,1023.22
2017-01-16T12:15:49.414Z,1023.18
2017-01-16T12:16:58.793Z,1023.19
2017-01-16T12:18:07.763Z,1023.17
2017-01-16T12:19:16.733Z,1023.23
2017-01-16T12:20:25.704Z,1023.17
2017-01-16T12:21:34.686Z,1023.19
2017-01-16T12:22:43.665Z,1023.22
2017-01-16T12:23:52.635Z,1023.22
2017-01-16T12:25:01.602Z,1023.18
2017-01-16T12:26:10.574Z,1023.16
2017-01-16T12:27:19.546Z,1023.14
2017-01-16T12:28:28.534Z,1023.12
2017-01-16T12:29:37.505Z,1023.13
2017-01-16T12:30:46.481Z,1023.1
2017-01-16T12:31:55.469Z,1023.09
2017-01-16T12:33:04.463Z,1023.1
2017-01-16T12:34:13.431Z,1023.06
2017-01-16T12:35:22.410Z,1023.08
2017-01-16T12:36:31.376Z,1023.07
2017-01-16T12:37:40.363Z,1023.07
2017-01-16T12:38:49.338Z,1023.09
2017-01-16T12:39:58.325Z,1023.07
2017-01-16T12:41:07.292Z,1023.06
2017-01-16T12:42:16.273Z,1023.05
2017-01-16T12:43:25.232Z,1023.07
2017-01-16T12:44:34.204Z,1023.13
2017-01-16T12:45:43.193Z,1023.09
2017-01-16T12:46:52.159Z,1023.04
2017-01-16T12:48:01.134Z,1023.05
2017-01-16T12:49:10.113Z,1023.09
2017-01-16T12:50:19.126Z,1023.12
2017-01-16T12:51:28.093Z,1023.11
2017-01-16T12:52:37.073Z,1023.11
2017-01-16T12:53:46.041Z,1023.11
2017-01-16T12:54:55.005Z,1023.13
2017-01-16T12:56:04.034Z,1023.1
2017-01-16T12:57:13.726Z,1023.1
2017-01-16T12:58:22.710Z,1023.09
2017-01-16T12:59:31.685Z,1023.08
2017-01-16T13:00:40.673Z,1023.1
2017-01-16T13:01:49.636Z,1023.1
2017-01-16T13:02:58.608Z,1023.11
2017-01-16T13:04:07.580Z,1023.08
2017-01-16T13:05:16.548Z,1023.11
2017-01-16T13:06:25.544Z,1023.09
2017-01-16T13:07:34.524Z,1023.14
2017-01-16T13:08:43.515Z,1023.13
2017-01-16T13:09:52.479Z,1023.16
2017-01-16T13:11:01.467Z,1023.15
2017-01-16T13:12:10.430Z,1023.15
2017-01-16T13:13:19.412Z,1023.12
2017-01-16T13:14:28.389Z,1023.14
2017-01-16T13:15:37.376Z,1023.14
2017-01-16T13:16:46.356Z,1023.19
2017-01-16T13:17:55.331Z,1023.2
2017-01-16T13:19:04.724Z,1023.21
2017-01-16T13:20:13.701Z,1023.22
2017-01-16T13:21:22.685Z,1023.22
2017-01-16T13:22:31.662Z,1023.21
2017-01-16T13:23:40.707Z,1023.21
2017-01-16T13:24:49.688Z,1023.23
2017-01-16T13:25:58.691Z,1023.22
2017-01-16T13:27:07.670Z,1023.21
2017-01-16T13:28:16.637Z,1023.24
2017-01-16T13:29:25.606Z,1023.23
2017-01-16T13:30:34.604Z,1023.28
2017-01-16T13:31:43.585Z,1023.27
2017-01-16T13:32:52.559Z,1023.26
2017-01-16T13:34:01.551Z,1023.29
2017-01-16T13:35:10.526Z,1023.33
2017-01-16T13:36:19.499Z,1023.33
2017-01-16T13:37:28.477Z,1023.28
2017-01-16T13:38:37.473Z,1023.33
2017-01-16T13:39:48.024Z,1023.34
2017-01-16T13:40:56.992Z,1023.3
2017-01-16T13:42:06.001Z,1023.34
2017-01-16T13:43:14.991Z,1023.34
2017-01-16T13:44:24.320Z,1023.33
2017-01-16T13:45:33.355Z,1023.34
2017-01-16T13:46:42.342Z,1023.3
2017-01-16T13:47:51.379Z,1023.34
2017-01-16T13:49:00.437Z,1023.33
2017-01-16T13:50:09.409Z,1023.32
2017-01-16T13:51:18.405Z,1023.3
2017-01-16T13:52:27.711Z,1023.31
2017-01-16T13:53:36.703Z,1023.33
2017-01-16T13:54:45.731Z,1023.33
2017-01-16T13:55:55.035Z,1023.33
2017-01-16T13:57:04.061Z,1023.37
2017-01-16T13:58:13.040Z,1023.38
2017-01-16T13:59:22.023Z,1023.4
2017-01-16T14:00:31.173Z,1023.4
2017-01-16T14:01:40.155Z,1023.39
2017-01-16T14:02:49.149Z,1023.42
2017-01-16T14:03:58.177Z,1023.43
2017-01-16T14:05:07.383Z,1023.48
2017-01-16T14:06:16.352Z,1023.5
2017-01-16T14:07:25.327Z,1023.52
2017-01-16T14:08:34.490Z,1023.53
2017-01-16T14:09:43.458Z,1023.53
2017-01-16T14:10:52.484Z,1023.53
2017-01-16T14:12:01.496Z,1023.54
2017-01-16T14:13:10.902Z,1023.57
2017-01-16T14:14:19.881Z,1023.56
2017-01-16T14:15:28.944Z,1023.58
2017-01-16T14:16:37.951Z,1023.6
2017-01-16T14:17:47.060Z,1023.59
2017-01-16T14:18:56.052Z,1023.59
2017-01-16T14:20:05.034Z,1023.62
2017-01-16T14:21:14.210Z,1023.61
2017-01-16T14:22:23.185Z,1023.66
2017-01-16T14:23:32.183Z,1023.66
2017-01-16T14:24:41.152Z,1023.69
2017-01-16T14:25:50.160Z,1023.66
2017-01-16T14:26:59.146Z,1023.71
2017-01-16T14:28:08.147Z,1023.71
2017-01-16T14:29:17.126Z,1023.74
2017-01-16T14:30:26.105Z,1023.73
2017-01-16T14:31:35.093Z,1023.74
2017-01-16T14:32:44.084Z,1023.75
2017-01-16T14:33:53.077Z,1023.77
2017-01-16T14:35:02.184Z,1023.75
2017-01-16T14:36:11.191Z,1023.77
2017-01-16T14:37:20.278Z,1023.79
2017-01-16T14:38:29.313Z,1023.78
2017-01-16T14:39:38.294Z,1023.79
2017-01-16T14:40:47.275Z,1023.8
2017-01-16T14:41:56.677Z,1023.77
2017-01-16T14:43:05.705Z,1023.79
2017-01-16T14:44:14.792Z,1023.81
2017-01-16T14:45:23.774Z,1023.84
2017-01-16T14:46:32.756Z,1023.82
2017-01-16T14:47:41.732Z,1023.85
2017-01-16T14:48:50.763Z,1023.85
2017-01-16T14:49:59.754Z,1023.83
2017-01-16T14:51:08.786Z,1023.84
2017-01-16T14:52:17.781Z,1023.88
2017-01-16T14:53:26.800Z,1023.87
2017-01-16T14:54:35.799Z,1023.87
2017-01-16T14:55:44.793Z,1023.81
2017-01-16T14:56:53.781Z,1023.81
2017-01-16T14:58:02.763Z,1023.83
2017-01-16T14:59:11.790Z,1023.86
2017-01-16T15:00:20.776Z,1023.86
2017-01-16T15:01:29.761Z,1023.87
2017-01-16T15:02:38.741Z,1023.87
2017-01-16T15:03:47.710Z,1023.88
2017-01-16T15:04:56.720Z,1023.93
2017-01-16T15:06:05.728Z,1023.93
2017-01-16T15:07:16.840Z,1023.9
2017-01-16T19:09:21.745Z,1026.55
2017-01-16T19:10:30.825Z,1026.54
2017-01-16T19:11:40.176Z,1026.55
2017-01-16T19:12:50.458Z,1026.6
2017-01-16T19:13:59.443Z,1026.6
2017-01-16T19:15:08.420Z,1026.61
2017-01-16T19:16:17.410Z,1026.61
2017-01-16T19:17:27.165Z,1026.62
2017-01-16T19:18:36.165Z,1026.65
2017-01-16T19:19:45.237Z,1026.64
2017-01-16T19:20:54.252Z,1026.65
2017-01-16T19:22:03.228Z,1026.65
2017-01-16T19:23:12.426Z,1026.66
2017-01-16T19:24:21.990Z,1026.68
2017-01-16T19:25:31.035Z,1026.72
2017-01-16T19:26:40.963Z,1026.74
2017-01-16T19:27:49.949Z,1026.77
2017-01-16T19:28:58.977Z,1026.81
2017-01-16T19:30:08.124Z,1026.79
2017-01-16T19:31:17.435Z,1026.82
2017-01-16T19:32:26.524Z,1026.8
2017-01-16T19:33:35.948Z,1026.84
2017-01-16T19:34:44.956Z,1026.83
2017-01-16T19:35:53.937Z,1026.87
2017-01-16T19:37:02.952Z,1026.85
2017-01-16T19:38:11.924Z,1026.87
2017-01-16T19:39:20.909Z,1026.86
2017-01-16T19:40:29.897Z,1026.89
2017-01-16T19:41:38.872Z,1026.9
2017-01-16T19:42:47.860Z,1026.9
2017-01-16T19:43:56.864Z,1026.94
2017-01-16T19:45:05.845Z,1026.93
2017-01-16T19:46:14.837Z,1026.99
2017-01-16T19:47:23.853Z,1026.97
2017-01-16T19:48:32.951Z,1026.96
2017-01-16T19:49:43.038Z,1026.97
2017-01-16T19:50:52.016Z,1026.97
2017-01-16T19:52:01.244Z,1027.01
2017-01-16T19:53:10.711Z,1027.03
2017-01-16T19:54:19.745Z,1027.01
2017-01-16T19:55:28.973Z,1027
2017-01-16T19:56:38.024Z,1027.03
2017-01-16T19:57:47.002Z,1027.01
2017-01-16T19:58:56.081Z,1027.01
2017-01-16T20:00:05.706Z,1027.06
2017-01-16T20:01:14.744Z,1027.06